createdAt,value
2018-07-28T00:00:03.540Z,23.58
2018-07-28T00:01:03.729Z,23.68
2018-07-28T00:02:03.908Z,23.69
2018-07-28T00:03:04.091Z,23.68
2018-07-28T00:04:04.274Z,23.62
2018-07-28T00:05:04.458Z,23.51
2018-07-28T00:06:04.643Z,23.41
2018-07-28T00:07:04.817Z,23.48
2018-07-28T00:08:05.012Z,23.50
2018-07-28T00:09:05.449Z,23.55
2018-07-28T00:10:05.663Z,23.54
2018-07-28T00:11:05.570Z,23.54
2018-07-28T00:12:05.624Z,23.34
2018-07-28T00:13:05.811Z,23.23
2018-07-28T00:14:05.976Z,23.31
2018-07-28T00:15:06.158Z,23.21
2018-07-28T00:16:06.349Z,23.31
2018-07-28T00:17:06.528Z,23.25
2018-07-28T00:18:06.709Z,23.28
2018-07-28T00:19:06.887Z,23.23
2018-07-28T00:20:07.061Z,23.21
2018-07-28T00:21:07.232Z,23.28
2018-07-28T00:22:07.412Z,23.32
2018-07-28T00:23:07.593Z,23.44
2018-07-28T00:24:07.785Z,23.43
2018-07-28T00:25:07.972Z,23.43
2018-07-28T00:26:08.146Z,23.37
2018-07-28T00:27:08.323Z,23.32
2018-07-28T00:28:08.502Z,23.37
2018-07-28T00:29:08.683Z,23.24
2018-07-28T00:30:08.870Z,23.37
2018-07-28T00:31:09.054Z,23.24
2018-07-28T00:32:09.247Z,23.28
2018-07-28T00:33:09.443Z,23.32
2018-07-28T00:34:09.889Z,23.31
2018-07-28T00:35:10.048Z,23.27
2018-07-28T00:36:10.050Z,23.08
2018-07-28T00:37:10.194Z,22.90
2018-07-28T00:38:10.290Z,23.06
2018-07-28T00:39:10.462Z,23.15
2018-07-28T00:40:10.645Z,23.03
2018-07-28T00:41:10.835Z,23.02
2018-07-28T00:42:11.017Z,23.05
2018-07-28T00:43:11.194Z,23.15
2018-07-28T00:44:11.375Z,23.15
2018-07-28T00:45:11.557Z,23.09
2018-07-28T00:46:11.744Z,23.12
2018-07-28T00:47:11.921Z,23.13
2018-07-28T00:48:12.108Z,23.06
2018-07-28T00:49:12.291Z,22.98
2018-07-28T00:50:12.472Z,22.84
2018-07-28T00:51:12.679Z,22.85
2018-07-28T00:52:12.833Z,22.76
2018-07-28T00:53:13.011Z,22.83
2018-07-28T00:54:13.203Z,22.94
2018-07-28T00:55:13.382Z,23.02
2018-07-28T00:56:13.571Z,22.91
2018-07-28T00:57:13.758Z,22.96
2018-07-28T00:58:13.943Z,22.94
2018-07-28T00:59:14.353Z,22.90
2018-07-28T01:00:14.512Z,22.73
2018-07-28T01:01:14.552Z,22.72
2018-07-28T01:02:14.602Z,22.73
2018-07-28T01:03:14.785Z,22.70
2018-07-28T01:04:14.971Z,22.66
2018-07-28T01:05:15.146Z,22.51
2018-07-28T01:06:15.329Z,22.57
2018-07-28T01:07:15.521Z,22.47
2018-07-28T01:08:15.725Z,22.55
2018-07-28T01:09:15.904Z,22.60
2018-07-28T01:10:16.090Z,22.66
2018-07-28T01:11:16.268Z,22.69
2018-07-28T01:12:16.453Z,22.66
2018-07-28T01:13:16.635Z,22.68
2018-07-28T01:14:16.818Z,22.78
2018-07-28T01:15:17.000Z,22.70
2018-07-28T01:16:17.181Z,22.76
2018-07-28T01:17:17.356Z,22.76
2018-07-28T01:18:17.544Z,22.70
2018-07-28T01:19:17.716Z,22.72
2018-07-28T01:20:17.911Z,22.78
2018-07-28T01:21:18.088Z,22.72
2018-07-28T01:22:18.269Z,22.88
2018-07-28T01:23:18.563Z,22.93
2018-07-28T01:24:18.862Z,22.93
2018-07-28T01:25:18.952Z,22.85
2018-07-28T01:26:19.012Z,22.83
2018-07-28T01:27:19.193Z,22.85
2018-07-28T01:28:19.370Z,22.93
2018-07-28T01:29:19.546Z,22.73
2018-07-28T01:30:19.733Z,22.72
2018-07-28T01:31:19.916Z,22.62
2018-07-28T01:32:20.088Z,22.66
2018-07-28T01:33:20.268Z,22.72
2018-07-28T01:34:20.453Z,22.69
2018-07-28T01:35:20.628Z,22.63
2018-07-28T01:36:20.818Z,22.50
2018-07-28T01:37:20.996Z,22.26
2018-07-28T01:38:21.174Z,22.22
2018-07-28T01:39:21.360Z,22.23
2018-07-28T01:40:21.537Z,22.23
2018-07-28T01:41:21.712Z,22.17
2018-07-28T01:42:21.887Z,22.07
2018-07-28T01:43:22.072Z,22.13
2018-07-28T01:44:22.251Z,22.17
2018-07-28T01:45:22.436Z,22.23
2018-07-28T01:46:22.624Z,22.07
2018-07-28T01:47:22.836Z,22.11
2018-07-28T01:48:23.262Z,22.10
2018-07-28T01:49:23.486Z,22.02
2018-07-28T01:50:23.418Z,22.11
2018-07-28T01:51:23.496Z,22.10
2018-07-28T01:52:23.685Z,22.14
2018-07-28T01:53:23.865Z,22.04
2018-07-28T01:54:24.053Z,22.08
2018-07-28T01:55:24.238Z,22.11
2018-07-28T01:56:24.417Z,22.11
2018-07-28T01:57:24.600Z,22.11
2018-07-28T01:58:24.805Z,22.04
2018-07-28T01:59:24.980Z,22.10
2018-07-28T02:00:25.164Z,22.08
2018-07-28T02:01:25.345Z,21.99
2018-07-28T02:02:25.522Z,22.07
2018-07-28T02:03:25.709Z,22.13
2018-07-28T02:04:25.881Z,22.02
2018-07-28T02:05:26.072Z,21.93
2018-07-28T02:06:26.255Z,21.92
2018-07-28T02:07:26.428Z,21.95
2018-07-28T02:08:26.613Z,21.83
2018-07-28T02:09:26.792Z,21.75
2018-07-28T02:10:26.970Z,21.70
2018-07-28T02:11:27.146Z,21.69
2018-07-28T02:12:27.332Z,21.72
2018-07-28T02:13:27.513Z,21.64
2018-07-28T02:14:27.696Z,21.58
2018-07-28T02:15:27.879Z,21.62
2018-07-28T02:16:28.063Z,21.64
2018-07-28T02:17:28.249Z,21.64
2018-07-28T02:18:28.430Z,21.62
2018-07-28T02:19:28.608Z,21.62
2018-07-28T02:20:28.800Z,21.64
2018-07-28T02:21:28.975Z,21.62
2018-07-28T02:22:29.168Z,21.60
2018-07-28T02:23:29.354Z,21.55
2018-07-28T02:24:29.533Z,21.61
2018-07-28T02:25:33.494Z,21.64
2018-07-28T02:26:33.794Z,21.73
2018-07-28T02:27:34.889Z,21.54
2018-07-28T02:28:35.259Z,21.58
2018-07-28T02:29:35.593Z,21.60
2018-07-28T02:30:33.253Z,21.54
2018-07-28T02:31:33.460Z,21.51
2018-07-28T02:32:33.290Z,21.57
2018-07-28T02:33:33.950Z,21.57
2018-07-28T02:34:33.248Z,21.60
2018-07-28T02:35:36.294Z,21.45
2018-07-28T02:36:32.952Z,21.45
2018-07-28T02:37:31.946Z,21.51
2018-07-28T02:38:31.649Z,21.40
2018-07-28T02:39:34.861Z,21.42
2018-07-28T02:40:31.986Z,21.43
2018-07-28T02:41:32.182Z,21.32
2018-07-28T02:42:32.372Z,21.35
2018-07-28T02:43:32.545Z,21.39
2018-07-28T02:44:32.722Z,21.36
2018-07-28T02:45:32.917Z,21.45
2018-07-28T02:46:33.104Z,21.33
2018-07-28T02:47:33.277Z,21.42
2018-07-28T02:48:33.460Z,21.45
2018-07-28T02:49:33.654Z,21.48
2018-07-28T02:50:33.838Z,21.43
2018-07-28T02:51:34.017Z,21.36
2018-07-28T02:52:34.185Z,21.39
2018-07-28T02:53:34.366Z,21.33
2018-07-28T02:54:34.540Z,21.43
2018-07-28T02:55:34.721Z,21.43
2018-07-28T02:56:34.904Z,21.29
2018-07-28T02:57:35.086Z,21.30
2018-07-28T02:58:35.256Z,21.32
2018-07-28T02:59:35.437Z,21.29
2018-07-28T03:00:35.627Z,21.25
2018-07-28T03:01:35.806Z,21.25
2018-07-28T03:02:35.987Z,21.30
2018-07-28T03:03:36.169Z,21.30
2018-07-28T03:04:36.350Z,21.20
2018-07-28T03:05:36.536Z,21.27
2018-07-28T03:06:36.719Z,21.30
2018-07-28T03:07:36.907Z,21.35
2018-07-28T03:08:37.088Z,21.35
2018-07-28T03:09:37.273Z,21.40
2018-07-28T03:10:37.450Z,21.30
2018-07-28T03:11:37.647Z,21.36
2018-07-28T03:12:37.820Z,21.33
2018-07-28T03:13:37.999Z,21.33
2018-07-28T03:14:38.183Z,21.21
2018-07-28T03:15:38.377Z,21.18
2018-07-28T03:16:38.554Z,21.14
2018-07-28T03:17:38.726Z,21.22
2018-07-28T03:18:38.903Z,21.09
2018-07-28T03:19:39.093Z,21.14
2018-07-28T03:20:39.266Z,21.05
2018-07-28T03:21:39.445Z,21.05
2018-07-28T03:22:39.643Z,21.05
2018-07-28T03:23:39.820Z,20.95
2018-07-28T03:24:40.000Z,21.05
2018-07-28T03:25:40.179Z,20.96
2018-07-28T03:26:40.362Z,20.92
2018-07-28T03:27:40.539Z,20.93
2018-07-28T03:28:40.746Z,20.88
2018-07-28T03:29:40.916Z,20.92
2018-07-28T03:30:41.105Z,20.93
2018-07-28T03:31:41.282Z,20.95
2018-07-28T03:32:41.467Z,20.90
2018-07-28T03:33:41.652Z,20.95
2018-07-28T03:34:41.827Z,20.82
2018-07-28T03:35:42.015Z,20.93
2018-07-28T03:36:42.197Z,20.95
2018-07-28T03:37:42.387Z,20.92
2018-07-28T03:38:42.566Z,20.97
2018-07-28T03:39:42.739Z,20.87
2018-07-28T03:40:42.922Z,21.07
2018-07-28T03:41:43.103Z,21.05
2018-07-28T03:42:43.282Z,20.97
2018-07-28T03:43:43.463Z,20.88
2018-07-28T03:44:43.641Z,20.93
2018-07-28T03:45:43.826Z,20.81
2018-07-28T03:46:44.153Z,20.80
2018-07-28T03:47:44.230Z,20.77
2018-07-28T03:48:44.435Z,20.84
2018-07-28T03:49:44.616Z,20.90
2018-07-28T03:50:44.827Z,20.87
2018-07-28T03:51:45.021Z,20.75
2018-07-28T03:52:45.255Z,20.85
2018-07-28T03:53:45.485Z,20.97
2018-07-28T03:54:45.657Z,20.90
2018-07-28T03:55:45.722Z,20.85
2018-07-28T03:56:45.902Z,20.93
2018-07-28T03:57:46.077Z,20.95
2018-07-28T03:58:46.276Z,20.85
2018-07-28T03:59:46.457Z,20.84
2018-07-28T04:00:46.652Z,20.93
2018-07-28T04:01:46.837Z,20.84
2018-07-28T04:02:47.020Z,20.78
2018-07-28T04:03:47.201Z,20.78
2018-07-28T04:04:47.376Z,20.87
2018-07-28T04:05:47.558Z,20.95
2018-07-28T04:06:47.738Z,20.90
2018-07-28T04:07:49.156Z,20.95
2018-07-28T04:08:48.137Z,20.88
2018-07-28T04:09:48.312Z,20.96
2018-07-28T04:10:48.485Z,20.92
2018-07-28T04:11:48.668Z,20.96
2018-07-28T04:12:48.861Z,20.92
2018-07-28T04:13:49.038Z,20.90
2018-07-28T04:14:49.226Z,20.80
2018-07-28T04:15:49.395Z,20.93
2018-07-28T04:16:49.578Z,20.88
2018-07-28T04:17:49.761Z,20.93
2018-07-28T04:18:49.944Z,20.87
2018-07-28T04:19:50.157Z,20.82
2018-07-28T04:20:50.348Z,20.99
2018-07-28T04:21:50.529Z,20.88
2018-07-28T04:22:50.717Z,20.90
2018-07-28T04:23:50.896Z,20.96
2018-07-28T04:24:51.077Z,20.93
2018-07-28T04:25:51.256Z,20.99
2018-07-28T04:26:51.430Z,20.92
2018-07-28T04:27:51.614Z,20.92
2018-07-28T04:28:51.820Z,21.03
2018-07-28T04:29:51.998Z,20.99
2018-07-28T04:30:52.192Z,21.02
2018-07-28T04:31:52.381Z,21.05
2018-07-28T04:32:52.558Z,21.14
2018-07-28T04:33:52.751Z,21.02
2018-07-28T04:34:52.932Z,21.02
2018-07-28T04:35:53.121Z,21.02
2018-07-28T04:36:53.300Z,21.12
2018-07-28T04:37:53.477Z,21.18
2018-07-28T04:38:53.726Z,21.21
2018-07-28T04:39:53.862Z,21.25
2018-07-28T04:40:54.039Z,21.20
2018-07-28T04:41:54.217Z,21.17
2018-07-28T04:42:54.397Z,21.22
2018-07-28T04:43:54.594Z,21.25
2018-07-28T04:44:54.762Z,21.22
2018-07-28T04:45:54.953Z,21.37
2018-07-28T04:46:55.144Z,21.27
2018-07-28T04:47:55.334Z,21.25
2018-07-28T04:48:55.530Z,21.35
2018-07-28T04:49:55.707Z,21.36
2018-07-28T04:50:55.912Z,21.40
2018-07-28T04:51:56.092Z,21.46
2018-07-28T04:52:56.272Z,21.33
2018-07-28T04:53:56.455Z,21.33
2018-07-28T04:54:57.104Z,21.42
2018-07-28T04:55:56.821Z,21.50
2018-07-28T04:56:57.114Z,21.42
2018-07-28T04:57:57.056Z,21.61
2018-07-28T04:58:57.349Z,21.52
2018-07-28T04:59:57.393Z,21.42
2018-07-28T05:00:57.569Z,21.61
2018-07-28T05:01:57.745Z,21.70
2018-07-28T05:02:57.916Z,21.77
2018-07-28T05:03:58.094Z,21.80
2018-07-28T05:04:58.271Z,21.83
2018-07-28T05:05:58.455Z,22.00
2018-07-28T05:06:58.634Z,22.13
2018-07-28T05:07:58.816Z,22.15
2018-07-28T05:08:59.014Z,22.18
2018-07-28T05:09:59.091Z,22.04
2018-07-28T05:10:59.273Z,22.00
2018-07-28T05:11:59.446Z,22.28
2018-07-28T05:12:59.631Z,22.14
2018-07-28T05:13:59.801Z,22.17
2018-07-28T05:15:00.009Z,22.28
2018-07-28T05:16:00.188Z,22.25
2018-07-28T05:17:00.447Z,22.55
2018-07-28T05:18:00.478Z,22.51
2018-07-28T05:19:00.679Z,22.54
2018-07-28T05:20:00.866Z,22.55
2018-07-28T05:21:01.120Z,22.68
2018-07-28T05:22:01.153Z,22.85
2018-07-28T05:23:01.315Z,22.76
2018-07-28T05:24:01.508Z,22.78
2018-07-28T05:25:03.186Z,22.76
2018-07-28T05:26:02.163Z,22.90
2018-07-28T05:27:03.064Z,23.03
2018-07-28T05:28:02.109Z,23.09
2018-07-28T05:29:02.285Z,23.18
2018-07-28T05:30:02.493Z,23.37
2018-07-28T05:31:02.672Z,23.25
2018-07-28T05:32:02.869Z,23.27
2018-07-28T05:33:03.049Z,23.34
2018-07-28T05:34:03.226Z,23.31
2018-07-28T05:35:03.412Z,23.47
2018-07-28T05:36:03.618Z,23.44
2018-07-28T05:37:03.859Z,23.32
2018-07-28T05:38:03.986Z,23.41
2018-07-28T05:39:04.222Z,23.31
2018-07-28T05:40:04.363Z,23.23
2018-07-28T05:41:04.534Z,23.28
2018-07-28T05:42:04.716Z,23.32
2018-07-28T05:43:04.912Z,23.46
2018-07-28T05:44:05.089Z,23.46
2018-07-28T05:45:05.505Z,23.62
2018-07-28T05:46:05.530Z,23.59
2018-07-28T05:47:05.595Z,23.69
2018-07-28T05:48:05.773Z,23.83
2018-07-28T05:49:05.950Z,23.84
2018-07-28T05:50:06.183Z,23.83
2018-07-28T05:51:06.348Z,23.88
2018-07-28T05:52:06.537Z,24.02
2018-07-28T05:53:06.734Z,23.98
2018-07-28T05:54:06.917Z,24.11
2018-07-28T05:55:07.101Z,24.14
2018-07-28T05:56:07.281Z,24.20
2018-07-28T05:57:07.454Z,24.29
2018-07-28T05:58:09.260Z,24.33
2018-07-28T05:59:07.784Z,24.42
2018-07-28T06:00:07.965Z,24.33
2018-07-28T06:01:08.146Z,24.39
2018-07-28T06:02:08.364Z,24.42
2018-07-28T06:03:08.508Z,24.50
2018-07-28T06:04:08.687Z,24.68
2018-07-28T06:05:08.877Z,24.60
2018-07-28T06:06:09.057Z,24.78
2018-07-28T06:07:09.244Z,24.73
2018-07-28T06:08:14.568Z,24.73
2018-07-28T06:09:13.689Z,24.96
2018-07-28T06:10:09.836Z,24.99
2018-07-28T06:11:10.484Z,25.16
2018-07-28T06:12:10.255Z,25.16
2018-07-28T06:13:10.440Z,25.18
2018-07-28T06:14:10.645Z,25.29
2018-07-28T06:15:10.791Z,25.43
2018-07-28T06:16:10.973Z,25.35
2018-07-28T06:17:11.165Z,25.60
2018-07-28T06:18:11.349Z,25.63
2018-07-28T06:19:11.526Z,25.55
2018-07-28T06:20:11.742Z,25.85
2018-07-28T06:21:11.893Z,25.87
2018-07-28T06:22:12.076Z,26.09
2018-07-28T06:23:13.217Z,26.22
2018-07-28T06:24:12.377Z,26.31
2018-07-28T06:25:12.566Z,26.34
2018-07-28T06:26:12.743Z,26.58
2018-07-28T06:27:12.926Z,26.58
2018-07-28T06:28:13.103Z,26.80
2018-07-28T06:29:13.293Z,26.65
2018-07-28T06:30:13.475Z,26.65
2018-07-28T06:31:13.662Z,26.56
2018-07-28T06:32:13.840Z,26.51
2018-07-28T06:33:14.025Z,26.51
2018-07-28T06:34:14.204Z,26.58
2018-07-28T06:35:14.397Z,26.66
2018-07-28T06:36:14.582Z,26.88
2018-07-28T06:37:14.761Z,26.96
2018-07-28T06:38:14.957Z,27.03
2018-07-28T06:39:15.134Z,27.02
2018-07-28T06:40:15.315Z,27.17
2018-07-28T06:41:15.496Z,27.33
2018-07-28T06:42:15.671Z,27.44
2018-07-28T06:43:15.856Z,27.54
2018-07-28T06:44:16.033Z,27.65
2018-07-28T06:45:16.229Z,27.71
2018-07-28T06:46:16.402Z,27.73
2018-07-28T06:47:16.598Z,27.32
2018-07-28T06:48:16.770Z,27.58
2018-07-28T06:49:16.953Z,27.73
2018-07-28T06:50:17.130Z,27.74
2018-07-28T06:51:17.307Z,27.95
2018-07-28T06:52:17.480Z,27.95
2018-07-28T06:53:17.668Z,27.74
2018-07-28T06:54:17.847Z,28.00
2018-07-28T06:55:18.027Z,28.01
2018-07-28T06:56:18.209Z,28.20
2018-07-28T06:57:18.404Z,28.32
2018-07-28T06:58:18.587Z,28.47
2018-07-28T06:59:18.778Z,28.64
2018-07-28T07:00:18.959Z,28.74
2018-07-28T07:01:19.146Z,28.84
2018-07-28T07:02:19.324Z,28.84
2018-07-28T07:03:19.513Z,29.12
2018-07-28T07:04:19.718Z,29.14
2018-07-28T07:05:19.879Z,29.22
2018-07-28T07:06:20.062Z,29.17
2018-07-28T07:07:20.248Z,29.42
2018-07-28T07:08:20.435Z,29.56
2018-07-28T07:09:20.618Z,29.82
2018-07-28T07:10:20.810Z,29.90
2018-07-28T07:11:21.002Z,29.95
2018-07-28T07:12:21.191Z,30.16
2018-07-28T07:13:21.446Z,30.00
2018-07-28T07:14:21.519Z,30.09
2018-07-28T07:15:21.742Z,30.10
2018-07-28T07:16:21.934Z,30.24
2018-07-28T07:17:22.126Z,30.35
2018-07-28T07:18:22.849Z,30.57
2018-07-28T07:19:22.534Z,30.70
2018-07-28T07:20:22.737Z,30.96
2018-07-28T07:21:23.019Z,31.17
2018-07-28T07:22:23.105Z,31.27
2018-07-28T07:23:23.315Z,31.28
2018-07-28T07:24:23.583Z,31.51
2018-07-28T07:25:23.628Z,31.43
2018-07-28T07:26:23.868Z,31.65
2018-07-28T07:27:24.047Z,31.61
2018-07-28T07:28:24.307Z,31.61
2018-07-28T07:29:24.689Z,31.74
2018-07-28T07:30:24.539Z,32.12
2018-07-28T07:31:24.750Z,32.15
2018-07-28T07:32:25.090Z,32.56
2018-07-28T07:33:25.130Z,32.78
2018-07-28T07:34:25.360Z,32.96
2018-07-28T07:35:25.546Z,33.20
2018-07-28T07:36:25.827Z,33.68
2018-07-28T07:37:25.950Z,34.03
2018-07-28T07:38:26.133Z,34.61
2018-07-28T07:39:26.913Z,35.10
2018-07-28T07:40:26.528Z,35.33
2018-07-28T07:41:26.752Z,35.66
2018-07-28T07:42:26.941Z,35.92
2018-07-28T07:43:27.289Z,36.12
2018-07-28T07:44:27.297Z,36.20
2018-07-28T07:45:27.490Z,36.65
2018-07-28T07:46:27.727Z,36.67
2018-07-28T07:47:28.021Z,36.73
2018-07-28T07:48:28.143Z,37.01
2018-07-28T07:49:28.332Z,37.17
2018-07-28T07:50:28.529Z,37.17
2018-07-28T07:51:28.714Z,37.67
2018-07-28T07:52:28.901Z,37.64
2018-07-28T07:53:29.092Z,37.74
2018-07-28T07:54:29.583Z,37.82
2018-07-28T07:55:29.523Z,37.93
2018-07-28T07:56:29.707Z,37.80
2018-07-28T07:57:29.908Z,37.84
2018-07-28T07:58:30.101Z,37.86
2018-07-28T07:59:30.297Z,37.71
2018-07-28T08:00:30.491Z,37.83
2018-07-28T08:01:30.688Z,37.86
2018-07-28T08:02:30.880Z,38.01
2018-07-28T08:03:31.077Z,37.97
2018-07-28T08:04:31.283Z,37.87
2018-07-28T08:05:31.475Z,37.87
2018-07-28T08:06:31.821Z,37.97
2018-07-28T08:07:31.880Z,37.94
2018-07-28T08:08:33.437Z,37.93
2018-07-28T08:09:33.679Z,37.82
2018-07-28T08:10:33.848Z,37.93
2018-07-28T08:11:33.748Z,37.87
2018-07-28T08:12:32.782Z,37.87
2018-07-28T08:13:33.013Z,37.96
2018-07-28T08:14:33.105Z,38.09
2018-07-28T08:15:33.312Z,38.09
2018-07-28T08:16:33.574Z,37.92
2018-07-28T08:17:33.720Z,38.33
2018-07-28T08:18:33.921Z,38.45
2018-07-28T08:19:34.118Z,38.62
2018-07-28T08:20:34.619Z,38.74
2018-07-28T08:21:34.473Z,38.77
2018-07-28T08:22:34.722Z,38.89
2018-07-28T08:23:34.792Z,38.92
2018-07-28T08:24:34.989Z,39.06
2018-07-28T08:25:35.188Z,39.26
2018-07-28T08:26:35.459Z,39.37
2018-07-28T08:27:35.515Z,39.36
2018-07-28T08:28:35.808Z,39.25
2018-07-28T08:29:35.866Z,39.44
2018-07-28T08:30:36.064Z,39.46
2018-07-28T08:31:36.246Z,39.63
2018-07-28T08:32:36.454Z,39.71
2018-07-28T08:33:36.630Z,39.63
2018-07-28T08:34:36.829Z,39.72
2018-07-28T08:35:37.024Z,39.97
2018-07-28T08:36:37.219Z,40.27
2018-07-28T08:37:37.412Z,40.51
2018-07-28T08:38:37.605Z,40.69
2018-07-28T08:39:37.801Z,40.59
2018-07-28T08:40:37.981Z,40.77
2018-07-28T08:41:38.174Z,41.00
2018-07-28T08:42:38.367Z,41.33
2018-07-28T08:43:38.554Z,41.45
2018-07-28T08:44:38.778Z,41.68
2018-07-28T08:45:39.005Z,41.92
2018-07-28T08:46:39.192Z,42.10
2018-07-28T08:47:39.391Z,42.16
2018-07-28T08:48:39.593Z,42.10
2018-07-28T08:49:40.167Z,42.19
2018-07-28T08:50:39.914Z,42.35
2018-07-28T08:51:40.104Z,42.60
2018-07-28T08:52:40.292Z,42.65
2018-07-28T08:53:40.489Z,42.58
2018-07-28T08:54:40.717Z,42.55
2018-07-28T08:55:40.864Z,42.66
2018-07-28T08:56:41.060Z,42.66
2018-07-28T08:57:41.248Z,42.73
2018-07-28T08:58:41.445Z,42.91
2018-07-28T08:59:41.639Z,42.94
2018-07-28T09:00:43.461Z,42.82
2018-07-28T09:01:42.018Z,42.91
2018-07-28T09:02:44.063Z,42.24
2018-07-28T09:03:43.612Z,42.21
2018-07-28T09:04:44.249Z,42.35
2018-07-28T09:05:42.799Z,42.63
2018-07-28T09:06:42.986Z,41.78
2018-07-28T09:07:43.182Z,40.75
2018-07-28T09:08:43.372Z,40.16
2018-07-28T09:09:43.604Z,39.63
2018-07-28T09:10:43.869Z,39.51
2018-07-28T09:11:43.941Z,39.55
2018-07-28T09:12:44.133Z,39.83
2018-07-28T09:13:44.326Z,39.67
2018-07-28T09:14:44.600Z,39.56
2018-07-28T09:15:44.673Z,39.43
2018-07-28T09:16:44.866Z,38.92
2018-07-28T09:17:45.065Z,38.52
2018-07-28T09:18:45.319Z,38.42
2018-07-28T09:19:45.387Z,38.38
2018-07-28T09:20:45.614Z,37.86
2018-07-28T09:21:45.795Z,37.44
2018-07-28T09:22:46.011Z,37.20
2018-07-28T09:23:46.197Z,36.81
2018-07-28T09:24:46.436Z,37.17
2018-07-28T09:25:46.517Z,36.81
2018-07-28T09:26:47.572Z,36.57
2018-07-28T09:27:47.227Z,36.31
2018-07-28T09:28:47.355Z,36.17
2018-07-28T09:29:47.238Z,35.83
2018-07-28T09:30:47.324Z,35.90
2018-07-28T09:31:47.517Z,35.74
2018-07-28T09:32:47.710Z,35.63
2018-07-28T09:33:47.901Z,35.46
2018-07-28T09:34:48.108Z,35.36
2018-07-28T09:35:48.496Z,35.05
2018-07-28T09:36:48.502Z,34.96
2018-07-28T09:37:48.750Z,34.86
2018-07-28T09:38:48.887Z,34.62
2018-07-28T09:39:49.070Z,34.70
2018-07-28T09:40:49.312Z,34.90
2018-07-28T09:41:51.232Z,34.89
2018-07-28T09:42:50.249Z,35.04
2018-07-28T09:43:49.883Z,35.49
2018-07-28T09:44:50.080Z,35.26
2018-07-28T09:45:50.285Z,35.31
2018-07-28T09:46:50.504Z,35.61
2018-07-28T09:47:50.664Z,35.64
2018-07-28T09:48:50.869Z,35.70
2018-07-28T09:49:51.094Z,35.74
2018-07-28T09:50:51.284Z,35.74
2018-07-28T09:51:51.465Z,35.78
2018-07-28T09:52:51.659Z,35.67
2018-07-28T09:53:51.842Z,35.76
2018-07-28T09:54:52.047Z,36.09
2018-07-28T09:55:52.331Z,36.24
2018-07-28T09:56:52.401Z,36.24
2018-07-28T09:57:52.581Z,35.88
2018-07-28T09:58:52.776Z,35.79
2018-07-28T09:59:54.345Z,35.82
2018-07-28T10:00:55.590Z,36.07
2018-07-28T10:01:55.442Z,36.18
2018-07-28T10:02:53.521Z,36.46
2018-07-28T10:03:53.707Z,36.45
2018-07-28T10:04:53.890Z,36.70
2018-07-28T10:05:54.081Z,37.32
2018-07-28T10:06:54.286Z,37.56
2018-07-28T10:07:54.479Z,37.84
2018-07-28T10:08:56.440Z,37.89
2018-07-28T10:09:56.108Z,37.35
2018-07-28T10:10:54.929Z,37.08
2018-07-28T10:11:55.115Z,36.84
2018-07-28T10:12:55.306Z,37.10
2018-07-28T10:13:55.502Z,37.37
2018-07-28T10:14:55.785Z,37.89
2018-07-28T10:15:55.990Z,37.68
2018-07-28T10:16:56.072Z,37.97
2018-07-28T10:17:57.985Z,38.12
2018-07-28T10:18:56.472Z,38.54
2018-07-28T10:19:56.663Z,38.77
2018-07-28T10:20:56.848Z,39.21
2018-07-28T10:21:57.081Z,39.46
2018-07-28T10:22:57.352Z,39.62
2018-07-28T10:23:57.459Z,39.44
2018-07-28T10:24:57.638Z,39.14
2018-07-28T10:25:57.823Z,38.86
2018-07-28T10:26:58.027Z,38.97
2018-07-28T10:27:58.205Z,38.83
2018-07-28T10:28:58.391Z,38.48
2018-07-28T10:29:58.590Z,38.04
2018-07-28T10:30:58.775Z,37.53
2018-07-28T10:31:58.972Z,37.11
2018-07-28T10:32:59.155Z,37.14
2018-07-28T10:33:59.346Z,37.59
2018-07-28T10:34:59.533Z,37.64
2018-07-28T10:35:59.726Z,37.25
2018-07-28T10:36:59.919Z,36.89
2018-07-28T10:38:00.117Z,36.68
2018-07-28T10:39:00.462Z,36.55
2018-07-28T10:40:00.840Z,36.30
2018-07-28T10:41:00.626Z,36.40
2018-07-28T10:42:00.918Z,37.13
2018-07-28T10:43:00.995Z,37.02
2018-07-28T10:44:01.182Z,36.95
2018-07-28T10:45:01.393Z,37.15
2018-07-28T10:46:01.598Z,37.26
2018-07-28T10:47:04.376Z,37.08
2018-07-28T10:48:01.995Z,36.72
2018-07-28T10:49:02.195Z,36.46
2018-07-28T10:50:02.374Z,36.23
2018-07-28T10:51:04.654Z,35.93
2018-07-28T10:52:02.756Z,35.64
2018-07-28T10:53:07.220Z,35.39
2018-07-28T10:54:06.510Z,35.51
2018-07-28T10:55:03.291Z,35.41
2018-07-28T10:56:03.488Z,35.12
2018-07-28T10:57:03.930Z,35.12
2018-07-28T10:58:03.789Z,35.05
2018-07-28T10:59:03.968Z,35.12
2018-07-28T11:00:04.223Z,35.04
2018-07-28T11:01:04.340Z,35.07
2018-07-28T11:02:04.547Z,35.05
2018-07-28T11:03:04.749Z,35.02
2018-07-28T11:04:07.592Z,35.05
2018-07-28T11:05:05.898Z,35.05
2018-07-28T11:06:05.341Z,34.99
2018-07-28T11:07:05.530Z,35.02
2018-07-28T11:08:05.715Z,35.00
2018-07-28T11:09:05.947Z,34.88
2018-07-28T11:10:06.087Z,34.88
2018-07-28T11:11:06.271Z,34.99
2018-07-28T11:12:06.454Z,34.95
2018-07-28T11:13:06.647Z,34.90
2018-07-28T11:14:06.840Z,34.83
2018-07-28T11:15:07.273Z,34.74
2018-07-28T11:16:07.238Z,34.60
2018-07-28T11:17:07.463Z,34.47
2018-07-28T11:18:07.650Z,34.38
2018-07-28T11:19:07.912Z,34.36
2018-07-28T11:20:08.054Z,34.32
2018-07-28T11:21:08.287Z,34.42
2018-07-28T11:22:08.472Z,34.43
2018-07-28T11:23:08.657Z,34.39
2018-07-28T11:24:12.495Z,34.36
2018-07-28T11:25:09.068Z,34.36
2018-07-28T11:26:09.286Z,34.23
2018-07-28T11:27:09.605Z,34.14
2018-07-28T11:28:09.690Z,34.08
2018-07-28T11:29:10.017Z,33.96
2018-07-28T11:30:10.052Z,34.01
2018-07-28T11:31:10.089Z,33.84
2018-07-28T11:32:10.167Z,33.87
2018-07-28T11:33:10.382Z,33.94
2018-07-28T11:34:10.543Z,33.79
2018-07-28T11:35:11.117Z,33.71
2018-07-28T11:36:10.945Z,33.81
2018-07-28T11:37:11.132Z,33.76
2018-07-28T11:38:11.390Z,33.76
2018-07-28T11:39:11.455Z,33.92
2018-07-28T11:40:11.649Z,33.90
2018-07-28T11:41:11.855Z,33.94
2018-07-28T11:42:12.032Z,34.11
2018-07-28T11:43:12.222Z,34.06
2018-07-28T11:44:12.434Z,34.03
2018-07-28T11:45:12.623Z,33.95
2018-07-28T11:46:12.834Z,33.86
2018-07-28T11:47:15.705Z,33.76
2018-07-28T11:48:13.283Z,33.76
2018-07-28T11:49:13.363Z,33.79
2018-07-28T11:50:13.735Z,33.80
2018-07-28T11:51:13.684Z,33.77
2018-07-28T11:52:14.036Z,33.65
2018-07-28T11:53:13.992Z,33.79
2018-07-28T11:54:16.191Z,33.84
2018-07-28T11:55:17.109Z,33.84
2018-07-28T11:56:14.512Z,33.94
2018-07-28T11:57:14.703Z,34.14
2018-07-28T11:58:14.998Z,34.13
2018-07-28T11:59:15.079Z,34.25
2018-07-28T12:00:15.245Z,34.52
2018-07-28T12:01:16.136Z,34.60
2018-07-28T12:02:15.645Z,34.89
2018-07-28T12:03:15.814Z,35.07
2018-07-28T12:04:16.050Z,35.11
2018-07-28T12:05:16.251Z,35.14
2018-07-28T12:06:16.425Z,35.18
2018-07-28T12:07:16.611Z,35.19
2018-07-28T12:08:16.804Z,35.12
2018-07-28T12:09:17.101Z,35.11
2018-07-28T12:10:17.161Z,35.11
2018-07-28T12:11:17.478Z,34.92
2018-07-28T12:12:17.520Z,34.88
2018-07-28T12:13:17.728Z,34.99
2018-07-28T12:14:17.907Z,34.97
2018-07-28T12:15:18.126Z,34.97
2018-07-28T12:16:18.430Z,34.93
2018-07-28T12:17:18.581Z,35.00
2018-07-28T12:18:18.711Z,35.10
2018-07-28T12:19:18.765Z,35.11
2018-07-28T12:20:19.109Z,35.08
2018-07-28T12:21:19.197Z,35.05
2018-07-28T12:22:19.662Z,34.93
2018-07-28T12:23:19.524Z,35.00
2018-07-28T12:24:19.711Z,35.07
2018-07-28T12:25:21.553Z,34.93
2018-07-28T12:26:23.472Z,34.99
2018-07-28T12:27:21.941Z,34.85
2018-07-28T12:28:22.368Z,34.77
2018-07-28T12:29:23.549Z,34.70
2018-07-28T12:30:22.471Z,34.39
2018-07-28T12:31:22.627Z,34.43
2018-07-28T12:32:22.813Z,34.36
2018-07-28T12:33:23.668Z,34.25
2018-07-28T12:34:22.874Z,34.23
2018-07-28T12:35:23.773Z,34.11
2018-07-28T12:36:23.218Z,34.14
2018-07-28T12:37:24.700Z,34.10
2018-07-28T12:38:25.439Z,34.08
2018-07-28T12:39:23.611Z,33.95
2018-07-28T12:40:24.586Z,33.77
2018-07-28T12:41:24.759Z,33.73
2018-07-28T12:42:26.523Z,33.62
2018-07-28T12:43:24.855Z,33.55
2018-07-28T12:44:26.187Z,33.58
2018-07-28T12:45:26.605Z,33.37
2018-07-28T12:46:26.095Z,33.30
2018-07-28T12:47:27.076Z,33.32
2018-07-28T12:48:26.749Z,33.20
2018-07-28T12:49:26.925Z,33.14
2018-07-28T12:50:24.709Z,33.11
2018-07-28T12:51:24.543Z,32.93
2018-07-28T12:52:24.722Z,32.95
2018-07-28T12:53:25.564Z,32.80
2018-07-28T12:54:25.231Z,32.77